sensor_id;sensor_type;location;lat;lon;timestamp;pressure;altitude;pressure_sealevel;temperature;humidity
32875;BME280;40468;42.128;24.750;2023-04-28T00:00:08;99892.25;;;11.47;42.28
32875;BME280;40468;42.128;24.750;2023-04-28T00:01:41;99893.16;;;11.46;41.90
32875;BME280;40468;42.128;24.750;2023-04-28T00:03:14;99896.56;;;11.48;42.01
32875;BME280;40468;42.128;24.750;2023-04-28T00:04:46;99895.63;;;11.49;42.08
32875;BME280;40468;42.128;24.750;2023-04-28T00:06:18;99893.03;;;11.49;42.21
32875;BME280;40468;42.128;24.750;2023-04-28T00:07:50;99893.97;;;11.48;42.30
32875;BME280;40468;42.128;24.750;2023-04-28T00:09:20;99890.56;;;11.46;42.19
32875;BME280;40468;42.128;24.750;2023-04-28T00:10:52;99893.88;;;11.50;42.47
32875;BME280;40468;42.128;24.750;2023-04-28T00:12:23;99890.41;;;11.49;42.48
32875;BME280;40468;42.128;24.750;2023-04-28T00:13:55;99893.97;;;11.48;42.69
32875;BME280;40468;42.128;24.750;2023-04-28T00:15:26;99894.16;;;11.44;42.47
32875;BME280;40468;42.128;24.750;2023-04-28T00:16:57;99896.75;;;11.44;42.43
32875;BME280;40468;42.128;24.750;2023-04-28T00:18:31;99895.16;;;11.41;42.69
32875;BME280;40468;42.128;24.750;2023-04-28T00:20:04;99884.94;;;11.36;42.72
32875;BME280;40468;42.128;24.750;2023-04-28T00:21:36;99883.19;;;11.37;42.43
32875;BME280;40468;42.128;24.750;2023-04-28T00:23:07;99881.50;;;11.36;42.58
32875;BME280;40468;42.128;24.750;2023-04-28T00:24:39;99884.94;;;11.36;42.81
32875;BME280;40468;42.128;24.750;2023-04-28T00:26:11;99891.78;;;11.39;42.78
32875;BME280;40468;42.128;24.750;2023-04-28T00:27:43;99889.19;;;11.39;42.71
32875;BME280;40468;42.128;24.750;2023-04-28T00:29:13;99886.63;;;11.37;42.70
32875;BME280;40468;42.128;24.750;2023-04-28T00:30:45;99887.41;;;11.39;42.85
32875;BME280;40468;42.128;24.750;2023-04-28T00:32:16;99877.31;;;11.32;42.82
32875;BME280;40468;42.128;24.750;2023-04-28T00:33:49;99883.03;;;11.40;42.49
32875;BME280;40468;42.128;24.750;2023-04-28T00:35:21;99891.69;;;11.41;42.60
32875;BME280;40468;42.128;24.750;2023-04-28T00:36:52;99880.56;;;11.37;42.27
32875;BME280;40468;42.128;24.750;2023-04-28T00:38:24;99884.94;;;11.36;42.28
32875;BME280;40468;42.128;24.750;2023-04-28T00:39:55;99890.78;;;11.42;42.60
32875;BME280;40468;42.128;24.750;2023-04-28T00:41:27;99886.44;;;11.42;42.44
32875;BME280;40468;42.128;24.750;2023-04-28T00:42:59;99876.13;;;11.39;42.14
32875;BME280;40468;42.128;24.750;2023-04-28T00:44:30;99891.69;;;11.41;42.34
32875;BME280;40468;42.128;24.750;2023-04-28T00:46:01;99889.22;;;11.37;42.28
32875;BME280;40468;42.128;24.750;2023-04-28T00:47:33;99888.44;;;11.35;42.08
32875;BME280;40468;42.128;24.750;2023-04-28T00:49:06;99882.63;;;11.30;41.91
32875;BME280;40468;42.128;24.750;2023-04-28T00:50:38;99883.47;;;11.31;42.15
32875;BME280;40468;42.128;24.750;2023-04-28T00:52:09;99885.16;;;11.32;41.93
32875;BME280;40468;42.128;24.750;2023-04-28T00:53:42;99886.00;;;11.32;42.15
32875;BME280;40468;42.128;24.750;2023-04-28T00:55:14;99878.16;;;11.32;42.22
32875;BME280;40468;42.128;24.750;2023-04-28T00:56:46;99890.31;;;11.33;41.96
32875;BME280;40468;42.128;24.750;2023-04-28T00:58:19;99892.97;;;11.32;41.93
32875;BME280;40468;42.128;24.750;2023-04-28T00:59:51;99869.38;;;11.16;42.12
32875;BME280;40468;42.128;24.750;2023-04-28T01:01:22;99882.28;;;11.19;41.93
32875;BME280;40468;42.128;24.750;2023-04-28T01:02:54;99895.81;;;11.27;42.04
32875;BME280;40468;42.128;24.750;2023-04-28T01:04:29;99899.41;;;11.25;42.27
32875;BME280;40468;42.128;24.750;2023-04-28T01:06:01;99896.00;;;11.23;42.32
32875;BME280;40468;42.128;24.750;2023-04-28T01:07:32;99896.94;;;11.22;42.38
32875;BME280;40468;42.128;24.750;2023-04-28T01:09:05;99897.84;;;11.21;42.09
32875;BME280;40468;42.128;24.750;2023-04-28T01:10:42;99902.28;;;11.19;42.45
32875;BME280;40468;42.128;24.750;2023-04-28T01:12:13;99899.75;;;11.17;42.53
32875;BME280;40468;42.128;24.750;2023-04-28T01:13:45;99893.81;;;11.13;42.54
32875;BME280;40468;42.128;24.750;2023-04-28T01:15:18;99896.44;;;11.13;42.19
32875;BME280;40468;42.128;24.750;2023-04-28T01:16:50;99905.19;;;11.12;42.53
32875;BME280;40468;42.128;24.750;2023-04-28T01:18:23;99912.06;;;11.13;42.53
32875;BME280;40468;42.128;24.750;2023-04-28T01:19:55;99902.63;;;11.11;42.52
32875;BME280;40468;42.128;24.750;2023-04-28T01:21:27;99892.78;;;10.99;42.89
32875;BME280;40468;42.128;24.750;2023-04-28T01:22:59;99903.84;;;11.04;42.73
32875;BME280;40468;42.128;24.750;2023-04-28T01:24:33;99905.78;;;10.99;42.97
32875;BME280;40468;42.128;24.750;2023-04-28T01:26:04;99899.94;;;10.93;43.19
32875;BME280;40468;42.128;24.750;2023-04-28T01:27:36;99898.41;;;10.89;43.13
32875;BME280;40468;42.128;24.750;2023-04-28T01:29:07;99914.97;;;10.88;43.32
32875;BME280;40468;42.128;24.750;2023-04-28T01:30:39;99896.13;;;10.82;43.25
32875;BME280;40468;42.128;24.750;2023-04-28T01:32:11;99901.56;;;10.77;43.67
32875;BME280;40468;42.128;24.750;2023-04-28T01:33:43;99889.69;;;10.70;43.91
32875;BME280;40468;42.128;24.750;2023-04-28T01:35:14;99900.25;;;10.67;43.96
32875;BME280;40468;42.128;24.750;2023-04-28T01:36:46;99893.50;;;10.63;43.87
32875;BME280;40468;42.128;24.750;2023-04-28T01:38:17;99896.38;;;10.57;44.04
32875;BME280;40468;42.128;24.750;2023-04-28T01:39:50;99891.22;;;10.55;43.96
32875;BME280;40468;42.128;24.750;2023-04-28T01:41:22;99889.81;;;10.48;44.05
32875;BME280;40468;42.128;24.750;2023-04-28T01:42:53;99903.41;;;10.55;44.05
32875;BME280;40468;42.128;24.750;2023-04-28T01:44:25;99906.97;;;10.52;43.72
32875;BME280;40468;42.128;24.750;2023-04-28T01:45:57;99898.47;;;10.48;43.84
32875;BME280;40468;42.128;24.750;2023-04-28T01:47:29;99902.81;;;10.48;43.74
32875;BME280;40468;42.128;24.750;2023-04-28T01:49:00;99903.66;;;10.48;43.90
32875;BME280;40468;42.128;24.750;2023-04-28T01:50:32;99909.66;;;10.51;44.00
32875;BME280;40468;42.128;24.750;2023-04-28T01:52:04;99895.41;;;10.39;44.07
32875;BME280;40468;42.128;24.750;2023-04-28T01:53:35;99900.53;;;10.40;43.79
32875;BME280;40468;42.128;24.750;2023-04-28T01:55:08;99910.81;;;10.43;44.14
32875;BME280;40468;42.128;24.750;2023-04-28T01:56:40;99902.38;;;10.38;44.06
32875;BME280;40468;42.128;24.750;2023-04-28T01:58:12;99909.31;;;10.38;43.91
32875;BME280;40468;42.128;24.750;2023-04-28T01:59:43;99912.97;;;10.34;43.96
32875;BME280;40468;42.128;24.750;2023-04-28T02:01:15;99908.59;;;10.34;44.18
32875;BME280;40468;42.128;24.750;2023-04-28T02:02:46;99909.53;;;10.33;44.00
32875;BME280;40468;42.128;24.750;2023-04-28T02:04:18;99918.31;;;10.31;44.07
32875;BME280;40468;42.128;24.750;2023-04-28T02:05:48;99909.81;;;10.25;44.17
32875;BME280;40468;42.128;24.750;2023-04-28T02:07:20;99919.38;;;10.25;43.88
32875;BME280;40468;42.128;24.750;2023-04-28T02:08:52;99906.75;;;10.16;43.85
32875;BME280;40468;42.128;24.750;2023-04-28T02:10:25;99920.56;;;10.18;44.09
32875;BME280;40468;42.128;24.750;2023-04-28T02:11:57;99914.59;;;10.14;44.26
32875;BME280;40468;42.128;24.750;2023-04-28T02:13:29;99919.06;;;10.12;44.29
32875;BME280;40468;42.128;24.750;2023-04-28T02:15:01;99919.94;;;10.11;44.07
32875;BME280;40468;42.128;24.750;2023-04-28T02:16:32;99914.09;;;10.06;44.14
32875;BME280;40468;42.128;24.750;2023-04-28T02:18:04;99925.41;;;10.05;44.34
32875;BME280;40468;42.128;24.750;2023-04-28T02:19:36;99921.16;;;10.02;44.15
32875;BME280;40468;42.128;24.750;2023-04-28T02:21:08;99828.28;;;9.42;44.29
32875;BME280;40468;42.128;24.750;2023-04-28T02:22:40;99923.06;;;9.99;44.32
32875;BME280;40468;42.128;24.750;2023-04-28T02:24:12;99921.41;;;9.96;44.55
32875;BME280;40468;42.128;24.750;2023-04-28T02:25:45;99929.31;;;9.95;44.59
32875;BME280;40468;42.128;24.750;2023-04-28T02:27:16;99918.44;;;9.85;44.37
32875;BME280;40468;42.128;24.750;2023-04-28T02:28:48;99926.28;;;9.84;44.50
32875;BME280;40468;42.128;24.750;2023-04-28T02:30:20;99916.91;;;9.79;44.50
32875;BME280;40468;42.128;24.750;2023-04-28T02:31:52;99931.59;;;9.80;44.66
32875;BME280;40468;42.128;24.750;2023-04-28T02:33:24;99936.94;;;9.77;44.44
32875;BME280;40468;42.128;24.750;2023-04-28T02:34:54;99927.72;;;9.69;44.64
32875;BME280;40468;42.128;24.750;2023-04-28T02:36:26;99929.38;;;9.71;44.83
32875;BME280;40468;42.128;24.750;2023-04-28T02:37:58;99932.09;;;9.68;44.57
32875;BME280;40468;42.128;24.750;2023-04-28T02:39:30;99916.84;;;9.59;44.41
32875;BME280;40468;42.128;24.750;2023-04-28T02:41:05;99931.28;;;9.66;44.50
32875;BME280;40468;42.128;24.750;2023-04-28T02:42:38;99935.66;;;9.66;44.59
32875;BME280;40468;42.128;24.750;2023-04-28T02:44:10;99930.50;;;9.64;44.57
32875;BME280;40468;42.128;24.750;2023-04-28T02:45:42;99934.94;;;9.62;44.49
32875;BME280;40468;42.128;24.750;2023-04-28T02:47:13;99933.22;;;9.61;44.34
32875;BME280;40468;42.128;24.750;2023-04-28T02:48:44;99928.09;;;9.60;44.27
32875;BME280;40468;42.128;24.750;2023-04-28T02:50:16;99930.75;;;9.58;44.26
32875;BME280;40468;42.128;24.750;2023-04-28T02:51:47;99926.66;;;9.52;44.29
32875;BME280;40468;42.128;24.750;2023-04-28T02:53:19;99886.94;;;9.25;44.31
32875;BME280;40468;42.128;24.750;2023-04-28T02:54:50;99921.66;;;9.46;44.31
32875;BME280;40468;42.128;24.750;2023-04-28T02:56:28;99932.81;;;9.50;44.22
32875;BME280;40468;42.128;24.750;2023-04-28T02:58:00;99926.03;;;9.46;44.41
32875;BME280;40468;42.128;24.750;2023-04-28T02:59:31;99935.69;;;9.42;44.44
32875;BME280;40468;42.128;24.750;2023-04-28T03:01:03;99930.38;;;9.45;44.43
32875;BME280;40468;42.128;24.750;2023-04-28T03:02:35;99927.19;;;9.39;44.23
32875;BME280;40468;42.128;24.750;2023-04-28T03:04:05;99865.59;;;8.95;44.40
32875;BME280;40468;42.128;24.750;2023-04-28T03:05:37;99930.56;;;9.41;44.38
32875;BME280;40468;42.128;24.750;2023-04-28T03:07:08;99941.94;;;9.38;44.17
32875;BME280;40468;42.128;24.750;2023-04-28T03:08:40;99939.44;;;9.35;44.34
32875;BME280;40468;42.128;24.750;2023-04-28T03:10:12;99937.13;;;9.27;44.17
32875;BME280;40468;42.128;24.750;2023-04-28T03:11:44;99943.88;;;9.31;44.16
32875;BME280;40468;42.128;24.750;2023-04-28T03:13:16;99940.44;;;9.31;44.18
32875;BME280;40468;42.128;24.750;2023-04-28T03:14:48;99927.88;;;9.20;44.17
32875;BME280;40468;42.128;24.750;2023-04-28T03:16:20;99949.16;;;9.30;44.28
32875;BME280;40468;42.128;24.750;2023-04-28T03:17:51;99948.31;;;9.29;44.09
32875;BME280;40468;42.128;24.750;2023-04-28T03:19:22;99951.81;;;9.28;44.06
32875;BME280;40468;42.128;24.750;2023-04-28T03:20:54;99953.53;;;9.29;44.04
32875;BME280;40468;42.128;24.750;2023-04-28T03:22:25;99952.72;;;9.27;44.28
32875;BME280;40468;42.128;24.750;2023-04-28T03:23:57;99946.00;;;9.22;44.25
32875;BME280;40468;42.128;24.750;2023-04-28T03:25:29;99958.88;;;9.25;44.05
32875;BME280;40468;42.128;24.750;2023-04-28T03:27:02;99958.03;;;9.24;43.93
32875;BME280;40468;42.128;24.750;2023-04-28T03:28:35;99959.00;;;9.22;44.32
32875;BME280;40468;42.128;24.750;2023-04-28T03:30:06;99960.75;;;9.21;44.07
32875;BME280;40468;42.128;24.750;2023-04-28T03:31:39;99973.63;;;9.24;44.15
32875;BME280;40468;42.128;24.750;2023-04-28T03:33:11;99970.19;;;9.24;44.17
32875;BME280;40468;42.128;24.750;2023-04-28T03:34:43;99973.66;;;9.23;44.17
32875;BME280;40468;42.128;24.750;2023-04-28T03:36:15;99957.00;;;9.05;44.07
32875;BME280;40468;42.128;24.750;2023-04-28T03:37:47;99987.56;;;9.22;43.98
32875;BME280;40468;42.128;24.750;2023-04-28T03:39:19;99951.25;;;8.97;44.01
32875;BME280;40468;42.128;24.750;2023-04-28T03:40:51;99992.75;;;9.22;43.94
32875;BME280;40468;42.128;24.750;2023-04-28T03:42:25;99997.06;;;9.23;43.82
32875;BME280;40468;42.128;24.750;2023-04-28T03:43:55;100000.53;;;9.23;43.94
32875;BME280;40468;42.128;24.750;2023-04-28T03:45:27;99981.75;;;9.15;43.95
32875;BME280;40468;42.128;24.750;2023-04-28T03:46:59;100006.50;;;9.25;44.06
32875;BME280;40468;42.128;24.750;2023-04-28T03:48:30;99998.03;;;9.20;44.04
32875;BME280;40468;42.128;24.750;2023-04-28T03:50:03;100003.88;;;9.25;43.89
32875;BME280;40468;42.128;24.750;2023-04-28T03:51:34;100008.34;;;9.22;44.04
32875;BME280;40468;42.128;24.750;2023-04-28T03:53:05;100015.88;;;9.29;43.81
32875;BME280;40468;42.128;24.750;2023-04-28T03:54:36;100014.19;;;9.28;43.88
32875;BME280;40468;42.128;24.750;2023-04-28T03:56:08;100021.94;;;9.30;43.87
32875;BME280;40468;42.128;24.750;2023-04-28T03:57:41;100025.38;;;9.30;44.02
32875;BME280;40468;42.128;24.750;2023-04-28T03:59:12;100020.28;;;9.27;43.84
32875;BME280;40468;42.128;24.750;2023-04-28T04:00:44;100023.69;;;9.29;43.90
32875;BME280;40468;42.128;24.750;2023-04-28T04:02:16;100029.75;;;9.28;43.88
32875;BME280;40468;42.128;24.750;2023-04-28T04:03:48;100030.69;;;9.27;43.86
32875;BME280;40468;42.128;24.750;2023-04-28T04:05:19;100033.28;;;9.27;43.58
32875;BME280;40468;42.128;24.750;2023-04-28T04:06:51;100029.00;;;9.26;43.67
32875;BME280;40468;42.128;24.750;2023-04-28T04:08:23;100019.66;;;9.21;43.89
32875;BME280;40468;42.128;24.750;2023-04-28T04:09:54;100042.75;;;9.28;43.58
32875;BME280;40468;42.128;24.750;2023-04-28T04:11:25;100035.88;;;9.27;43.59
32875;BME280;40468;42.128;24.750;2023-04-28T04:12:58;100043.56;;;9.30;43.71
32875;BME280;40468;42.128;24.750;2023-04-28T04:14:29;100034.13;;;9.28;43.68
32875;BME280;40468;42.128;24.750;2023-04-28T04:16:01;100038.38;;;9.30;43.44
32875;BME280;40468;42.128;24.750;2023-04-28T04:17:33;100031.59;;;9.26;43.48
32875;BME280;40468;42.128;24.750;2023-04-28T04:19:04;100050.34;;;9.34;43.40
32875;BME280;40468;42.128;24.750;2023-04-28T04:20:36;100045.22;;;9.33;43.57
32875;BME280;40468;42.128;24.750;2023-04-28T04:22:08;100040.84;;;9.33;43.68
32875;BME280;40468;42.128;24.750;2023-04-28T04:23:40;100051.94;;;9.39;43.49
32875;BME280;40468;42.128;24.750;2023-04-28T04:25:10;100046.78;;;9.37;43.64
32875;BME280;40468;42.128;24.750;2023-04-28T04:26:42;100059.56;;;9.43;43.42
32875;BME280;40468;42.128;24.750;2023-04-28T04:28:15;100052.63;;;9.44;43.45
32875;BME280;40468;42.128;24.750;2023-04-28T04:29:46;100054.31;;;9.45;43.58
32875;BME280;40468;42.128;24.750;2023-04-28T04:31:18;100062.00;;;9.48;43.42
32875;BME280;40468;42.128;24.750;2023-04-28T04:32:51;100058.38;;;9.52;43.24
32875;BME280;40468;42.128;24.750;2023-04-28T04:34:23;100046.25;;;9.52;43.49
32875;BME280;40468;42.128;24.750;2023-04-28T04:35:55;100057.25;;;9.59;42.96
32875;BME280;40468;42.128;24.750;2023-04-28T04:37:27;100052.94;;;9.58;43.20
32875;BME280;40468;42.128;24.750;2023-04-28T04:38:59;100058.81;;;9.63;43.18
32875;BME280;40468;42.128;24.750;2023-04-28T04:40:30;100058.72;;;9.66;43.01
32875;BME280;40468;42.128;24.750;2023-04-28T04:42:02;100060.31;;;9.70;42.84
32875;BME280;40468;42.128;24.750;2023-04-28T04:43:35;100064.47;;;9.74;42.97
32875;BME280;40468;42.128;24.750;2023-04-28T04:45:07;100066.13;;;9.77;42.92
32875;BME280;40468;42.128;24.750;2023-04-28T04:46:39;100062.69;;;9.76;42.82
32875;BME280;40468;42.128;24.750;2023-04-28T04:48:11;100053.25;;;9.74;42.64
32875;BME280;40468;42.128;24.750;2023-04-28T04:49:43;100054.31;;;9.68;42.61
32875;BME280;40468;42.128;24.750;2023-04-28T04:51:14;100052.56;;;9.69;42.48
32875;BME280;40468;42.128;24.750;2023-04-28T04:52:46;100051.63;;;9.70;42.48
32875;BME280;40468;42.128;24.750;2023-04-28T04:54:18;100078.72;;;9.88;42.58
32875;BME280;40468;42.128;24.750;2023-04-28T04:55:50;100076.91;;;9.90;42.65
32875;BME280;40468;42.128;24.750;2023-04-28T04:57:22;100061.41;;;9.87;42.46
32875;BME280;40468;42.128;24.750;2023-04-28T04:58:56;100084.31;;;10.00;42.63
32875;BME280;40468;42.128;24.750;2023-04-28T05:00:28;100089.97;;;10.12;42.38
32875;BME280;40468;42.128;24.750;2023-04-28T05:01:59;100088.81;;;10.19;42.67
32875;BME280;40468;42.128;24.750;2023-04-28T05:03:30;100086.59;;;10.32;42.18
32875;BME280;40468;42.128;24.750;2023-04-28T05:05:15;100090.72;;;10.37;42.13
32875;BME280;40468;42.128;24.750;2023-04-28T05:06:47;100091.38;;;10.42;42.00
32875;BME280;40468;42.128;24.750;2023-04-28T05:08:19;100095.78;;;10.40;42.05
32875;BME280;40468;42.128;24.750;2023-04-28T05:09:51;100083.09;;;10.33;41.81
32875;BME280;40468;42.128;24.750;2023-04-28T05:11:22;100097.44;;;10.65;41.43
32875;BME280;40468;42.128;24.750;2023-04-28T05:12:54;100091.59;;;11.01;41.12
32875;BME280;40468;42.128;24.750;2023-04-28T05:14:27;100090.53;;;11.46;40.06
32875;BME280;40468;42.128;24.750;2023-04-28T05:15:59;100099.91;;;11.89;39.95
32875;BME280;40468;42.128;24.750;2023-04-28T05:17:31;100103.97;;;12.33;39.05
32875;BME280;40468;42.128;24.750;2023-04-28T05:19:04;100108.28;;;12.87;38.80
32875;BME280;40468;42.128;24.750;2023-04-28T05:20:37;100103.91;;;13.40;37.93
32875;BME280;40468;42.128;24.750;2023-04-28T05:22:09;100106.84;;;13.83;37.15
32875;BME280;40468;42.128;24.750;2023-04-28T05:23:41;100086.00;;;14.13;36.92
32875;BME280;40468;42.128;24.750;2023-04-28T05:25:14;100099.03;;;14.62;36.31
32875;BME280;40468;42.128;24.750;2023-04-28T05:26:46;100101.47;;;14.95;35.52
32875;BME280;40468;42.128;24.750;2023-04-28T05:28:18;100099.94;;;15.21;35.26
32875;BME280;40468;42.128;24.750;2023-04-28T05:29:51;100105.09;;;15.37;34.35
32875;BME280;40468;42.128;24.750;2023-04-28T05:31:23;100107.47;;;15.56;34.59
32875;BME280;40468;42.128;24.750;2023-04-28T05:32:54;100108.03;;;15.90;34.12
32875;BME280;40468;42.128;24.750;2023-04-28T05:34:26;100113.84;;;16.09;33.35
32875;BME280;40468;42.128;24.750;2023-04-28T05:35:59;100103.84;;;16.14;33.18
32875;BME280;40468;42.128;24.750;2023-04-28T05:37:31;100110.38;;;16.36;32.92
32875;BME280;40468;42.128;24.750;2023-04-28T05:39:03;100111.66;;;16.43;32.57
32875;BME280;40468;42.128;24.750;2023-04-28T05:40:35;100110.28;;;16.37;32.61
32875;BME280;40468;42.128;24.750;2023-04-28T05:42:07;100115.28;;;16.28;32.59
32875;BME280;40468;42.128;24.750;2023-04-28T05:43:39;100109.50;;;16.08;32.72
32875;BME280;40468;42.128;24.750;2023-04-28T05:45:12;100095.09;;;15.87;32.89
32875;BME280;40468;42.128;24.750;2023-04-28T05:46:44;100119.13;;;15.81;32.97
32875;BME280;40468;42.128;24.750;2023-04-28T05:48:16;100114.97;;;15.62;32.94
32875;BME280;40468;42.128;24.750;2023-04-28T05:49:49;100128.94;;;15.63;33.23
32875;BME280;40468;42.128;24.750;2023-04-28T05:51:22;100130.91;;;15.59;32.85
32875;BME280;40468;42.128;24.750;2023-04-28T05:53:13;100118.81;;;15.57;33.23
32875;BME280;40468;42.128;24.750;2023-04-28T05:54:59;100101.91;;;15.61;32.85
32875;BME280;40468;42.128;24.750;2023-04-28T05:56:47;100121.28;;;15.88;32.53
32875;BME280;40468;42.128;24.750;2023-04-28T05:58:31;100131.19;;;16.12;32.37
32875;BME280;40468;42.128;24.750;2023-04-28T06:00:29;100125.66;;;16.44;32.14
32875;BME280;40468;42.128;24.750;2023-04-28T06:04:26;100124.00;;;17.10;31.22
32875;BME280;40468;42.128;24.750;2023-04-28T06:06:10;100125.91;;;17.33;31.26
32875;BME280;40468;42.128;24.750;2023-04-28T06:07:43;100128.34;;;17.62;30.60
32875;BME280;40468;42.128;24.750;2023-04-28T06:09:33;100124.34;;;17.69;30.26
32875;BME280;40468;42.128;24.750;2023-04-28T06:11:06;100127.91;;;17.68;30.14
32875;BME280;40468;42.128;24.750;2023-04-28T06:12:39;100127.09;;;17.55;29.74
32875;BME280;40468;42.128;24.750;2023-04-28T06:14:11;100132.44;;;17.40;29.86
32875;BME280;40468;42.128;24.750;2023-04-28T06:15:45;100130.22;;;17.34;30.04
32875;BME280;40468;42.128;24.750;2023-04-28T06:17:18;100129.69;;;17.29;29.91
32875;BME280;40468;42.128;24.750;2023-04-28T06:18:50;100124.63;;;17.13;29.80
32875;BME280;40468;42.128;24.750;2023-04-28T06:20:22;100120.91;;;16.90;30.15
32875;BME280;40468;42.128;24.750;2023-04-28T06:21:54;100136.28;;;16.69;30.29
32875;BME280;40468;42.128;24.750;2023-04-28T06:23:26;100129.13;;;16.44;30.63
32875;BME280;40468;42.128;24.750;2023-04-28T06:24:58;100137.72;;;16.19;30.78
32875;BME280;40468;42.128;24.750;2023-04-28T06:26:30;100133.84;;;15.98;30.97
32875;BME280;40468;42.128;24.750;2023-04-28T06:28:10;100127.63;;;15.84;31.26
32875;BME280;40468;42.128;24.750;2023-04-28T06:29:44;100133.78;;;15.55;31.57
32875;BME280;40468;42.128;24.750;2023-04-28T06:31:18;100135.47;;;15.27;32.09
32875;BME280;40468;42.128;24.750;2023-04-28T06:32:50;100133.16;;;15.07;32.51
32875;BME280;40468;42.128;24.750;2023-04-28T06:34:23;100131.50;;;14.90;32.42
32875;BME280;40468;42.128;24.750;2023-04-28T06:35:58;100121.13;;;14.72;33.04
32875;BME280;40468;42.128;24.750;2023-04-28T06:37:30;100130.72;;;14.73;33.07
32875;BME280;40468;42.128;24.750;2023-04-28T06:39:02;100134.94;;;14.76;32.79
32875;BME280;40468;42.128;24.750;2023-04-28T06:40:34;100135.78;;;14.76;33.00
32875;BME280;40468;42.128;24.750;2023-04-28T06:42:07;100117.00;;;14.68;33.28
32875;BME280;40468;42.128;24.750;2023-04-28T06:43:39;100129.09;;;14.71;33.34
32875;BME280;40468;42.128;24.750;2023-04-28T06:45:11;100137.47;;;14.77;33.43
32875;BME280;40468;42.128;24.750;2023-04-28T06:46:45;100142.09;;;14.72;33.53
32875;BME280;40468;42.128;24.750;2023-04-28T06:48:17;100137.63;;;14.74;33.46
32875;BME280;40468;42.128;24.750;2023-04-28T06:49:48;100134.84;;;14.77;33.57
32875;BME280;40468;42.128;24.750;2023-04-28T06:51:21;100130.44;;;14.78;33.63
32875;BME280;40468;42.128;24.750;2023-04-28T06:52:53;100127.56;;;14.83;33.72
32875;BME280;40468;42.128;24.750;2023-04-28T06:54:25;100139.38;;;14.90;33.44
32875;BME280;40468;42.128;24.750;2023-04-28T06:55:57;100137.16;;;14.98;33.72
32875;BME280;40468;42.128;24.750;2023-04-28T06:57:29;100132.38;;;15.05;33.66
32875;BME280;40468;42.128;24.750;2023-04-28T06:59:02;100139.72;;;15.14;33.86
32875;BME280;40468;42.128;24.750;2023-04-28T07:00:34;100137.31;;;15.25;33.66
32875;BME280;40468;42.128;24.750;2023-04-28T07:02:07;100136.41;;;15.40;33.93
32875;BME280;40468;42.128;24.750;2023-04-28T07:03:39;100120.97;;;15.50;33.79
32875;BME280;40468;42.128;24.750;2023-04-28T07:05:12;100132.50;;;15.76;33.40
32875;BME280;40468;42.128;24.750;2023-04-28T07:06:44;100128.41;;;15.86;33.13
32875;BME280;40468;42.128;24.750;2023-04-28T07:08:16;100109.81;;;15.89;33.03
32875;BME280;40468;42.128;24.750;2023-04-28T07:09:48;100124.28;;;16.24;32.86
32875;BME280;40468;42.128;24.750;2023-04-28T07:11:22;100124.63;;;16.46;32.73
32875;BME280;40468;42.128;24.750;2023-04-28T07:12:54;100132.41;;;16.75;32.22
32875;BME280;40468;42.128;24.750;2023-04-28T07:14:26;100124.28;;;16.92;32.27
32875;BME280;40468;42.128;24.750;2023-04-28T07:16:01;100123.03;;;17.11;31.90
32875;BME280;40468;42.128;24.750;2023-04-28T07:17:38;100126.97;;;17.31;31.71
32875;BME280;40468;42.128;24.750;2023-04-28T07:19:19;100115.28;;;17.47;31.31
32875;BME280;40468;42.128;24.750;2023-04-28T07:20:51;100120.84;;;17.68;30.61
32875;BME280;40468;42.128;24.750;2023-04-28T07:22:23;100131.41;;;17.81;30.83
32875;BME280;40468;42.128;24.750;2023-04-28T07:23:58;100123.47;;;17.94;30.38
32875;BME280;40468;42.128;24.750;2023-04-28T07:25:30;100127.34;;;18.14;30.27
32875;BME280;40468;42.128;24.750;2023-04-28T07:27:03;100126.25;;;18.29;30.03
32875;BME280;40468;42.128;24.750;2023-04-28T07:28:37;100121.41;;;18.47;29.47
32875;BME280;40468;42.128;24.750;2023-04-28T07:30:10;100126.19;;;18.66;29.43
32875;BME280;40468;42.128;24.750;2023-04-28T07:31:43;100131.22;;;18.82;29.38
32875;BME280;40468;42.128;24.750;2023-04-28T07:33:17;100126.00;;;19.04;29.29
32875;BME280;40468;42.128;24.750;2023-04-28T07:34:49;100127.50;;;19.31;29.17
32875;BME280;40468;42.128;24.750;2023-04-28T07:36:21;100096.44;;;19.35;28.96
32875;BME280;40468;42.128;24.750;2023-04-28T07:37:54;100125.91;;;19.75;28.38
32875;BME280;40468;42.128;24.750;2023-04-28T07:39:27;100102.50;;;19.70;28.06
32875;BME280;40468;42.128;24.750;2023-04-28T07:41:01;100126.00;;;19.96;28.07
32875;BME280;40468;42.128;24.750;2023-04-28T07:42:34;100132.72;;;20.11;27.82
32875;BME280;40468;42.128;24.750;2023-04-28T07:44:06;100115.66;;;20.27;27.67
32875;BME280;40468;42.128;24.750;2023-04-28T07:45:39;100079.78;;;20.34;27.87
32875;BME280;40468;42.128;24.750;2023-04-28T07:47:11;100104.38;;;20.89;26.91
32875;BME280;40468;42.128;24.750;2023-04-28T07:48:45;100114.78;;;21.23;26.84
32875;BME280;40468;42.128;24.750;2023-04-28T07:50:17;100113.44;;;21.49;26.69
32875;BME280;40468;42.128;24.750;2023-04-28T07:51:49;100104.22;;;21.74;26.39
32875;BME280;40468;42.128;24.750;2023-04-28T07:53:24;100103.03;;;21.98;26.05
32875;BME280;40468;42.128;24.750;2023-04-28T07:54:57;100108.53;;;22.16;26.02
32875;BME280;40468;42.128;24.750;2023-04-28T07:56:29;100109.97;;;22.30;25.85
32875;BME280;40468;42.128;24.750;2023-04-28T07:58:01;100100.50;;;22.46;25.40
32875;BME280;40468;42.128;24.750;2023-04-28T07:59:33;100113.91;;;22.64;25.20
32875;BME280;40468;42.128;24.750;2023-04-28T08:01:06;100102.63;;;22.72;24.91
32875;BME280;40468;42.128;24.750;2023-04-28T08:02:38;100098.84;;;22.84;25.14
32875;BME280;40468;42.128;24.750;2023-04-28T08:04:11;100100.25;;;23.08;24.90